createdAt,value
2018-07-12T00:00:18.974Z,18.70
2018-07-12T00:02:46.270Z,19.40
2018-07-12T00:05:13.590Z,22.37
2018-07-12T00:07:40.897Z,20.57
2018-07-12T00:10:08.213Z,24.33
2018-07-12T00:12:35.552Z,24.93
2018-07-12T00:15:02.891Z,25.03
2018-07-12T00:17:30.342Z,26.27
2018-07-12T00:19:57.653Z,27.03
2018-07-12T00:22:25.311Z,24.00
2018-07-12T00:24:52.623Z,26.17
2018-07-12T00:27:19.924Z,26.30
2018-07-12T00:29:47.224Z,26.87
2018-07-12T00:32:14.538Z,28.73
2018-07-12T00:34:41.855Z,26.73
2018-07-12T00:37:09.195Z,26.17
2018-07-12T00:39:36.530Z,27.70
2018-07-12T00:42:04.129Z,25.97
2018-07-12T00:44:31.455Z,26.27
2018-07-12T00:46:58.860Z,27.20
2018-07-12T00:49:27.000Z,25.47
2018-07-12T00:51:54.457Z,28.23
2018-07-12T00:54:22.037Z,30.60
2018-07-12T00:56:49.547Z,25.73
2018-07-12T00:59:16.739Z,29.03
2018-07-12T01:01:44.116Z,26.10
2018-07-12T01:04:11.422Z,30.90
2018-07-12T01:06:38.773Z,28.27
2018-07-12T01:09:06.568Z,26.30
2018-07-12T01:11:34.508Z,28.40
2018-07-12T01:14:02.180Z,29.70
2018-07-12T01:16:29.474Z,34.30
2018-07-12T01:18:56.799Z,30.77
2018-07-12T01:21:24.162Z,30.50
2018-07-12T01:23:51.454Z,29.77
2018-07-12T01:26:18.772Z,29.90
2018-07-12T01:28:46.135Z,31.20
2018-07-12T01:31:13.456Z,32.03
2018-07-12T01:33:40.786Z,30.60
2018-07-12T01:36:08.147Z,31.80
2018-07-12T01:38:35.451Z,33.30
2018-07-12T01:41:02.795Z,30.60
2018-07-12T01:43:30.092Z,33.30
2018-07-12T01:45:57.380Z,33.17
2018-07-12T01:48:24.967Z,33.80
2018-07-12T01:50:52.253Z,34.67
2018-07-12T01:53:19.568Z,31.63
2018-07-12T01:55:46.864Z,33.80
2018-07-12T01:58:14.152Z,35.10
2018-07-12T02:00:41.530Z,33.43
2018-07-12T02:03:08.761Z,34.93
2018-07-12T02:05:36.062Z,35.03
2018-07-12T02:08:03.373Z,39.63
2018-07-12T02:10:30.695Z,33.63
2018-07-12T02:12:57.993Z,39.40
2018-07-12T02:15:25.297Z,35.03
2018-07-12T02:17:52.587Z,36.57
2018-07-12T02:20:19.901Z,35.53
2018-07-12T02:22:47.201Z,36.73
2018-07-12T02:25:14.688Z,35.27
2018-07-12T02:27:42.066Z,46.30
2018-07-12T02:30:09.330Z,49.53
2018-07-12T02:32:36.695Z,38.47
2018-07-12T02:35:04.202Z,38.30
2018-07-12T02:37:31.506Z,36.57
2018-07-12T02:39:58.810Z,36.90
2018-07-12T02:42:26.141Z,37.47
2018-07-12T02:44:53.449Z,35.90
2018-07-12T02:47:21.234Z,37.47
2018-07-12T02:49:48.528Z,39.33
2018-07-12T02:52:16.328Z,35.17
2018-07-12T02:54:43.988Z,38.00
2018-07-12T02:57:11.359Z,32.87
2018-07-12T02:59:38.669Z,35.47
2018-07-12T03:02:05.974Z,36.20
2018-07-12T03:04:33.313Z,34.30
2018-07-12T03:07:00.668Z,33.33
2018-07-12T03:09:28.017Z,35.40
2018-07-12T03:11:55.384Z,33.80
2018-07-12T03:14:22.728Z,36.77
2018-07-12T03:16:50.037Z,37.60
2018-07-12T03:19:17.374Z,38.00
2018-07-12T03:21:44.672Z,38.33
2018-07-12T03:24:11.988Z,36.40
2018-07-12T03:26:39.348Z,41.20
2018-07-12T03:29:06.647Z,38.70
2018-07-12T03:31:33.973Z,40.33
2018-07-12T03:34:01.276Z,51.20
2018-07-12T03:36:28.618Z,38.43
2018-07-12T03:38:55.914Z,37.40
2018-07-12T03:41:23.233Z,39.70
2018-07-12T03:43:50.544Z,38.90
2018-07-12T03:46:17.873Z,39.33
2018-07-12T03:48:45.162Z,36.60
2018-07-12T03:51:12.474Z,37.30
2018-07-12T03:53:39.773Z,36.03
2018-07-12T03:56:07.121Z,35.30
2018-07-12T03:58:34.465Z,34.37
2018-07-12T04:01:01.828Z,34.40
2018-07-12T04:03:29.188Z,34.10
2018-07-12T04:05:56.437Z,36.33
2018-07-12T04:08:23.744Z,33.37
2018-07-12T04:10:51.083Z,34.27
2018-07-12T04:13:18.749Z,32.13
2018-07-12T04:15:46.057Z,35.13
2018-07-12T04:18:13.354Z,33.87
2018-07-12T04:20:40.676Z,34.03
2018-07-12T04:23:08.194Z,34.67
2018-07-12T04:25:35.499Z,33.83
2018-07-12T04:28:03.048Z,35.37
2018-07-12T04:30:30.404Z,30.40
2018-07-12T04:32:57.696Z,32.60
2018-07-12T04:35:25.001Z,34.57
2018-07-12T04:37:52.419Z,32.67
2018-07-12T04:40:19.656Z,35.47
2018-07-12T04:42:46.992Z,36.60
2018-07-12T04:45:14.296Z,37.20
2018-07-12T04:47:41.623Z,36.73
2018-07-12T04:50:08.926Z,35.90
2018-07-12T04:52:36.220Z,35.87
2018-07-12T04:55:03.543Z,34.40
2018-07-12T04:57:30.851Z,34.67
2018-07-12T04:59:58.208Z,34.57
2018-07-12T05:02:25.530Z,35.50
2018-07-12T05:04:52.891Z,34.40
2018-07-12T05:07:20.173Z,31.97
2018-07-12T05:09:47.549Z,33.70
2018-07-12T05:12:14.848Z,32.20
2018-07-12T05:14:42.164Z,30.77
2018-07-12T05:17:09.490Z,30.27
2018-07-12T05:19:36.813Z,33.27
2018-07-12T05:22:04.124Z,30.73
2018-07-12T05:24:31.472Z,28.40
2018-07-12T05:26:58.763Z,27.90
2018-07-12T05:29:26.097Z,28.67
2018-07-12T05:31:53.400Z,24.60
2018-07-12T05:34:20.734Z,25.93
2018-07-12T05:36:58.234Z,23.97
2018-07-12T05:39:26.774Z,21.00
2018-07-12T05:41:55.237Z,20.93
2018-07-12T05:44:23.694Z,18.47
2018-07-12T05:46:52.159Z,17.23
2018-07-12T05:49:20.617Z,17.53
2018-07-12T05:51:49.079Z,17.70
2018-07-12T05:54:18.628Z,17.30
2018-07-12T05:56:47.311Z,18.00
2018-07-12T05:59:15.896Z,18.87
2018-07-12T06:01:55.349Z,18.80
2018-07-12T06:04:23.799Z,17.87
2018-07-12T06:06:52.245Z,17.30
2018-07-12T06:09:20.765Z,18.87
2018-07-12T06:11:49.221Z,18.70
2018-07-12T06:14:17.725Z,19.60
2018-07-12T06:16:46.213Z,21.43
2018-07-12T06:19:14.665Z,23.90
2018-07-12T06:21:43.106Z,24.67
2018-07-12T06:24:11.540Z,28.83
2018-07-12T06:26:40.018Z,27.83
2018-07-12T06:29:08.503Z,27.83
2018-07-12T06:31:36.932Z,28.20
2018-07-12T06:34:05.489Z,25.73
2018-07-12T06:36:33.912Z,21.90
2018-07-12T06:39:02.474Z,21.57
2018-07-12T06:41:30.909Z,23.50
2018-07-12T06:43:59.359Z,23.10
2018-07-12T06:46:27.845Z,23.47
2018-07-12T06:48:56.348Z,25.70
2018-07-12T06:51:24.896Z,26.43
2018-07-12T06:53:53.336Z,27.33
2018-07-12T06:56:21.866Z,33.03
2018-07-12T06:58:50.370Z,35.97
2018-07-12T07:01:18.803Z,36.87
2018-07-12T07:03:47.265Z,38.67
2018-07-12T07:06:15.410Z,40.40
2018-07-12T07:08:43.920Z,41.70
2018-07-12T07:11:12.396Z,45.23
2018-07-12T07:13:40.922Z,42.07
2018-07-12T07:16:09.988Z,41.07
2018-07-12T07:18:38.425Z,45.40
2018-07-12T07:21:06.927Z,45.20
2018-07-12T07:23:35.389Z,42.00
2018-07-12T07:26:03.859Z,42.70
2018-07-12T07:28:32.720Z,43.67
2018-07-12T07:31:01.211Z,42.00
2018-07-12T07:33:29.738Z,43.00
2018-07-12T07:35:58.272Z,39.77
2018-07-12T07:38:26.784Z,39.40
2018-07-12T07:40:55.607Z,38.20
2018-07-12T07:43:24.108Z,37.20
2018-07-12T07:45:52.483Z,39.07
2018-07-12T07:48:21.545Z,42.30
2018-07-12T07:50:50.005Z,47.07
2018-07-12T07:53:18.480Z,46.07
2018-07-12T07:55:46.932Z,41.90
2018-07-12T07:58:15.444Z,37.30
2018-07-12T08:00:43.980Z,37.90
2018-07-12T08:03:12.575Z,38.80
2018-07-12T08:05:41.897Z,41.57
2018-07-12T08:08:10.401Z,42.90
2018-07-12T08:10:41.809Z,40.50
2018-07-12T08:13:10.421Z,40.90
2018-07-12T08:15:39.090Z,35.27
2018-07-12T08:18:07.560Z,31.00
2018-07-12T08:20:36.034Z,27.87
2018-07-12T08:23:04.522Z,28.33
2018-07-12T08:25:33.021Z,27.97
2018-07-12T08:28:12.750Z,28.73
2018-07-12T08:30:41.320Z,29.43
2018-07-12T08:33:09.793Z,29.20
2018-07-12T08:35:39.277Z,30.60
2018-07-12T08:38:07.797Z,30.97
2018-07-12T08:40:36.368Z,30.87
2018-07-12T08:43:04.844Z,27.77
2018-07-12T08:45:33.364Z,26.50
2018-07-12T08:48:01.904Z,28.27
2018-07-12T08:50:30.585Z,31.50
2018-07-12T08:52:59.403Z,30.67
2018-07-12T08:55:27.895Z,26.90
2018-07-12T08:57:56.409Z,28.30
2018-07-12T09:00:24.948Z,28.50
2018-07-12T09:02:53.523Z,29.23
2018-07-12T09:05:21.852Z,27.97
2018-07-12T09:07:50.358Z,27.97
2018-07-12T09:10:18.849Z,25.03
2018-07-12T09:12:47.477Z,23.40
2018-07-12T09:15:16.100Z,21.60
2018-07-12T09:17:44.651Z,21.83
2018-07-12T09:20:13.100Z,22.90
2018-07-12T09:22:41.855Z,21.87
2018-07-12T09:25:10.335Z,21.13
2018-07-12T09:27:38.897Z,23.57
2018-07-12T09:30:07.361Z,22.67
2018-07-12T09:32:35.781Z,22.60
2018-07-12T09:35:04.257Z,22.70
2018-07-12T09:37:32.818Z,21.27
2018-07-12T09:40:01.420Z,22.03
2018-07-12T09:42:29.986Z,22.83
2018-07-12T09:44:58.584Z,22.00
2018-07-12T09:47:27.137Z,21.23
2018-07-12T09:49:55.549Z,19.43
2018-07-12T09:52:29.433Z,19.70
2018-07-12T09:54:57.981Z,20.87
2018-07-12T09:57:37.805Z,19.07
2018-07-12T10:00:06.530Z,15.30
2018-07-12T10:02:40.227Z,16.77
2018-07-12T10:05:13.678Z,18.10
2018-07-12T10:07:42.566Z,16.90
2018-07-12T10:10:11.035Z,16.77
2018-07-12T10:12:44.861Z,16.10
2018-07-12T10:15:17.574Z,15.90
2018-07-12T10:17:55.214Z,15.70
2018-07-12T10:20:23.781Z,15.50
2018-07-12T10:22:52.252Z,16.50
2018-07-12T10:25:20.803Z,17.47
2018-07-12T10:27:49.388Z,15.60
2018-07-12T10:30:17.910Z,15.90
2018-07-12T10:32:46.367Z,16.50
2018-07-12T10:35:15.197Z,16.97
2018-07-12T10:37:43.641Z,18.53
2018-07-12T10:40:11.988Z,20.07
2018-07-12T10:42:40.504Z,22.47
2018-07-12T10:45:08.616Z,23.10
2018-07-12T10:47:37.191Z,20.60
2018-07-12T10:50:06.085Z,21.10
2018-07-12T10:52:34.695Z,19.50
2018-07-12T10:55:03.183Z,18.47
2018-07-12T10:57:31.637Z,17.07
2018-07-12T11:00:00.110Z,16.70
2018-07-12T11:02:28.500Z,17.23
2018-07-12T11:04:56.985Z,18.00
2018-07-12T11:07:25.463Z,18.60
2018-07-12T11:09:53.901Z,18.40
2018-07-12T11:12:22.393Z,19.90
2018-07-12T11:14:50.986Z,18.60
2018-07-12T11:17:19.826Z,19.90
2018-07-12T11:19:48.275Z,19.33
2018-07-12T11:22:16.802Z,20.30
2018-07-12T11:24:45.319Z,22.30
2018-07-12T11:27:13.832Z,19.17
2018-07-12T11:29:53.652Z,16.93
2018-07-12T11:32:22.153Z,14.30
2018-07-12T11:34:52.879Z,15.23
2018-07-12T11:37:25.262Z,15.10
2018-07-12T11:39:53.844Z,15.50
2018-07-12T11:42:22.621Z,15.93
2018-07-12T11:44:51.197Z,17.50
2018-07-12T11:47:20.216Z,18.40
2018-07-12T11:49:48.815Z,14.53
2018-07-12T11:52:17.478Z,16.90
2018-07-12T11:54:46.160Z,16.30
2018-07-12T11:57:14.696Z,16.60
2018-07-12T11:59:43.134Z,16.07
2018-07-12T12:02:11.816Z,21.60
2018-07-12T12:04:40.347Z,16.67
2018-07-12T12:07:09.181Z,17.77
2018-07-12T12:09:37.694Z,18.17
2018-07-12T12:12:06.265Z,16.27
2018-07-12T12:14:34.908Z,20.23
2018-07-12T12:17:03.556Z,19.07
2018-07-12T12:19:32.369Z,18.00
2018-07-12T12:22:01.240Z,20.43
2018-07-12T12:24:29.824Z,20.93
2018-07-12T12:26:58.338Z,19.00
2018-07-12T12:29:27.669Z,18.63
2018-07-12T12:31:56.124Z,18.70
2018-07-12T12:34:24.583Z,21.80
2018-07-12T12:36:53.254Z,22.17
2018-07-12T12:39:21.700Z,20.23
2018-07-12T12:41:50.171Z,18.77
2018-07-12T12:44:18.620Z,18.73
2018-07-12T12:46:47.208Z,15.60
2018-07-12T12:49:15.681Z,16.00
2018-07-12T12:51:44.180Z,17.77
2018-07-12T12:54:12.610Z,18.00
2018-07-12T12:56:41.099Z,18.03
2018-07-12T12:59:09.580Z,17.10
2018-07-12T13:01:38.098Z,17.33
2018-07-12T13:04:06.625Z,17.70
2018-07-12T13:06:35.041Z,18.00
2018-07-12T13:09:04.354Z,16.37
2018-07-12T13:11:32.836Z,16.80
2018-07-12T13:14:01.268Z,18.43
2018-07-12T13:16:29.730Z,17.50
2018-07-12T13:18:58.161Z,16.00
2018-07-12T13:21:26.607Z,15.00
2018-07-12T13:23:55.124Z,15.50
2018-07-12T13:26:23.755Z,13.83
2018-07-12T13:28:52.255Z,14.30
2018-07-12T13:31:20.784Z,15.03
2018-07-12T13:33:49.411Z,14.60
2018-07-12T13:36:18.250Z,14.50
2018-07-12T13:38:46.744Z,15.13
2018-07-12T13:41:15.967Z,14.47
2018-07-12T13:43:45.093Z,14.43
2018-07-12T13:46:13.590Z,13.47
2018-07-12T13:48:42.021Z,13.57
2018-07-12T13:51:10.578Z,12.70
2018-07-12T13:53:39.366Z,13.50
2018-07-12T13:56:08.120Z,12.37
2018-07-12T13:58:36.642Z,11.47
2018-07-12T14:01:05.127Z,12.17
2018-07-12T14:03:33.567Z,11.67
2018-07-12T14:06:02.190Z,23.10
2018-07-12T14:08:30.664Z,17.03
2018-07-12T14:10:59.348Z,16.40
2018-07-12T14:13:27.901Z,14.80
2018-07-12T14:15:56.397Z,11.77
2018-07-12T14:18:24.827Z,10.57
2018-07-12T14:20:53.289Z,9.73
2018-07-12T14:23:22.108Z,12.03
2018-07-12T14:25:50.541Z,15.07
2018-07-12T14:28:19.174Z,11.50
2018-07-12T14:30:47.628Z,12.00
2018-07-12T14:33:16.081Z,10.60
2018-07-12T14:35:44.525Z,11.10
2018-07-12T14:38:13.157Z,7.70
2018-07-12T14:40:41.631Z,9.53
2018-07-12T14:43:10.416Z,8.90
2018-07-12T14:45:38.912Z,9.37
2018-07-12T14:48:07.622Z,8.30
2018-07-12T14:50:36.094Z,8.30
2018-07-12T14:53:04.543Z,9.43
2018-07-12T14:55:33.051Z,9.63
2018-07-12T14:58:01.589Z,9.07
2018-07-12T15:00:30.275Z,7.87
2018-07-12T15:02:59.094Z,8.27
2018-07-12T15:05:27.515Z,7.50
2018-07-12T15:07:56.000Z,14.47
2018-07-12T15:10:24.463Z,9.17
2018-07-12T15:12:52.981Z,7.73
2018-07-12T15:15:21.503Z,6.50
2018-07-12T15:17:50.043Z,6.83
2018-07-12T15:20:18.538Z,6.67
2018-07-12T15:22:47.196Z,5.93
2018-07-12T15:25:15.644Z,6.70
2018-07-12T15:27:44.304Z,6.70
2018-07-12T15:30:12.844Z,6.40
2018-07-12T15:32:41.415Z,7.10
2018-07-12T15:35:10.205Z,5.87
2018-07-12T15:37:38.704Z,6.00
2018-07-12T15:40:07.212Z,6.53
2018-07-12T15:42:36.301Z,18.50
2018-07-12T15:45:04.824Z,7.87
2018-07-12T15:47:33.305Z,9.90
2018-07-12T15:50:01.751Z,11.60
2018-07-12T15:52:30.281Z,6.87
2018-07-12T15:54:58.684Z,6.37
2018-07-12T15:57:27.181Z,5.47
2018-07-12T15:59:55.646Z,5.80
2018-07-12T16:02:24.062Z,6.70
2018-07-12T16:04:52.622Z,5.50
2018-07-12T16:07:21.054Z,5.30
2018-07-12T16:09:49.589Z,5.67
2018-07-12T16:12:18.053Z,4.83
2018-07-12T16:14:46.526Z,4.83
2018-07-12T16:17:15.100Z,7.10
2018-07-12T16:19:43.631Z,6.17
2018-07-12T16:22:12.224Z,7.50
2018-07-12T16:24:40.853Z,4.73
2018-07-12T16:27:09.457Z,3.83
2018-07-12T16:29:37.916Z,4.10
2018-07-12T16:32:06.587Z,4.63
2018-07-12T16:34:34.991Z,5.20
2018-07-12T16:37:03.246Z,5.03
2018-07-12T16:39:31.935Z,5.03
2018-07-12T16:42:00.468Z,4.53
2018-07-12T16:44:29.078Z,4.13
2018-07-12T16:46:57.608Z,5.10
2018-07-12T16:49:26.112Z,4.40
2018-07-12T16:51:54.604Z,9.83
2018-07-12T16:54:23.174Z,5.60
2018-07-12T16:56:51.699Z,4.07
2018-07-12T16:59:20.295Z,5.53
2018-07-12T17:01:49.000Z,5.50
2018-07-12T17:04:17.878Z,4.10
2018-07-12T17:06:46.386Z,5.27
2018-07-12T17:09:14.912Z,4.50
2018-07-12T17:11:43.444Z,3.97
2018-07-12T17:14:12.002Z,4.40
2018-07-12T17:16:40.713Z,4.70
2018-07-12T17:19:09.216Z,3.87
2018-07-12T17:21:37.670Z,4.60
2018-07-12T17:24:06.228Z,4.07
2018-07-12T17:26:34.772Z,23.03
2018-07-12T17:29:04.049Z,5.10
2018-07-12T17:31:32.637Z,4.43
2018-07-12T17:34:01.094Z,3.60
2018-07-12T17:36:29.578Z,4.30
2018-07-12T17:38:58.037Z,3.83
2018-07-12T17:41:26.550Z,3.80
2018-07-12T17:43:55.084Z,4.43
2018-07-12T17:46:23.584Z,16.53
2018-07-12T17:48:52.540Z,4.33
2018-07-12T17:51:21.062Z,4.33
2018-07-12T17:53:49.572Z,3.90
2018-07-12T17:56:18.617Z,4.93
2018-07-12T17:58:47.399Z,4.37
2018-07-12T18:01:16.065Z,3.87
2018-07-12T18:03:44.898Z,3.80
2018-07-12T18:06:13.577Z,3.40
2018-07-12T18:08:42.040Z,3.40
2018-07-12T18:11:10.610Z,4.50
2018-07-12T18:13:39.197Z,3.53
2018-07-12T18:16:07.675Z,3.97
2018-07-12T18:18:36.401Z,4.20
2018-07-12T18:21:05.044Z,4.03
2018-07-12T18:23:33.600Z,33.63
2018-07-12T18:26:02.057Z,4.00
2018-07-12T18:28:30.498Z,3.80
2018-07-12T18:30:59.635Z,4.20
2018-07-12T18:33:28.212Z,4.17
2018-07-12T18:35:56.713Z,3.87
2018-07-12T18:38:25.349Z,5.30
2018-07-12T18:40:53.887Z,5.80
2018-07-12T18:43:22.505Z,5.60
2018-07-12T18:45:51.037Z,4.63
2018-07-12T18:48:19.528Z,4.27
2018-07-12T18:50:48.066Z,4.10
2018-07-12T18:53:16.707Z,4.00
2018-07-12T18:55:45.274Z,5.10
2018-07-12T18:58:13.408Z,3.93
2018-07-12T19:00:41.880Z,4.03
2018-07-12T19:03:10.872Z,4.67
2018-07-12T19:05:39.514Z,5.20
2018-07-12T19:08:08.060Z,4.27
2018-07-12T19:10:36.532Z,4.00
2018-07-12T19:13:05.119Z,11.50
2018-07-12T19:15:33.706Z,4.10
2018-07-12T19:18:02.217Z,3.20
2018-07-12T19:20:30.662Z,3.70
2018-07-12T19:22:59.088Z,3.37
2018-07-12T19:25:27.828Z,3.83
2018-07-12T19:27:56.324Z,4.10
2018-07-12T19:30:24.820Z,3.97
2018-07-12T19:32:53.277Z,3.80
2018-07-12T19:35:21.790Z,4.30
2018-07-12T19:37:50.296Z,4.40
2018-07-12T19:40:18.500Z,4.03
2018-07-12T19:42:47.020Z,4.27
2018-07-12T19:45:15.645Z,7.80
2018-07-12T19:47:46.408Z,4.80
2018-07-12T19:50:15.068Z,4.00
2018-07-12T19:52:43.948Z,4.43
2018-07-12T19:55:12.393Z,3.60
2018-07-12T19:57:41.073Z,5.57
2018-07-12T20:00:09.698Z,4.10
2018-07-12T20:02:38.376Z,3.77
2018-07-12T20:05:07.057Z,4.10
2018-07-12T20:07:35.516Z,3.23
2018-07-12T20:10:04.096Z,3.80
2018-07-12T20:12:32.544Z,3.70
2018-07-12T20:15:01.280Z,3.27
2018-07-12T20:17:30.040Z,3.37
2018-07-12T20:19:58.514Z,3.50
2018-07-12T20:22:27.024Z,4.00
2018-07-12T20:24:55.540Z,3.30
2018-07-12T20:27:24.041Z,3.70
2018-07-12T20:29:52.467Z,3.87
2018-07-12T20:32:20.733Z,3.87
2018-07-12T20:34:49.168Z,3.40
2018-07-12T20:37:17.601Z,4.83
2018-07-12T20:39:46.103Z,4.53
2018-07-12T20:42:14.637Z,5.60
2018-07-12T20:44:43.498Z,4.67
2018-07-12T20:47:11.970Z,5.03
2018-07-12T20:49:40.446Z,4.20
2018-07-12T20:52:09.031Z,4.37
2018-07-12T20:54:37.493Z,4.63
2018-07-12T20:57:06.296Z,4.50
2018-07-12T20:59:34.729Z,4.00
2018-07-12T21:02:03.180Z,4.20
2018-07-12T21:04:31.743Z,4.73
2018-07-12T21:07:00.225Z,6.40
2018-07-12T21:09:28.649Z,4.90
2018-07-12T21:11:57.160Z,5.20
2018-07-12T21:14:25.658Z,4.80
2018-07-12T21:16:54.140Z,5.40
2018-07-12T21:19:24.751Z,5.10
2018-07-12T21:21:53.540Z,5.30
2018-07-12T21:24:22.053Z,5.20
2018-07-12T21:26:50.691Z,5.03
2018-07-12T21:29:19.137Z,5.90
2018-07-12T21:31:47.557Z,5.40
2018-07-12T21:34:16.021Z,6.00
2018-07-12T21:36:44.496Z,6.20
2018-07-12T21:39:12.961Z,5.50
2018-07-12T21:41:41.425Z,5.17
2018-07-12T21:44:09.901Z,7.13
2018-07-12T21:46:38.408Z,6.57
2018-07-12T21:49:06.827Z,5.57
2018-07-12T21:51:35.313Z,5.73
2018-07-12T21:54:03.808Z,5.23
2018-07-12T21:56:32.353Z,5.10
2018-07-12T21:59:00.792Z,5.43
2018-07-12T22:01:29.370Z,6.30
2018-07-12T22:03:57.863Z,5.33
2018-07-12T22:07:39.427Z,5.30
2018-07-12T22:10:08.369Z,5.30
2018-07-12T22:12:36.532Z,5.47
2018-07-12T22:15:04.656Z,5.73
2018-07-12T22:17:33.110Z,5.07
2018-07-12T22:20:01.606Z,5.00
2018-07-12T22:22:30.095Z,4.50
2018-07-12T22:24:58.605Z,4.77
2018-07-12T22:27:27.056Z,4.50
2018-07-12T22:29:55.536Z,5.37
2018-07-12T22:32:24.108Z,5.00
2018-07-12T22:34:52.542Z,5.83
2018-07-12T22:37:20.965Z,7.80
2018-07-12T22:39:49.501Z,5.40
2018-07-12T22:42:17.936Z,5.73
2018-07-12T22:44:46.362Z,6.70
2018-07-12T22:47:14.850Z,5.57
2018-07-12T22:49:43.316Z,5.87
2018-07-12T22:52:12.270Z,5.00
2018-07-12T22:54:40.709Z,5.63
2018-07-12T22:57:09.245Z,6.57
2018-07-12T22:59:37.556Z,6.60
2018-07-12T23:02:05.988Z,6.67
2018-07-12T23:04:34.455Z,7.40
2018-07-12T23:07:03.025Z,7.10
2018-07-12T23:09:31.512Z,6.73
2018-07-12T23:11:59.926Z,8.90
2018-07-12T23:14:28.353Z,7.67
2018-07-12T23:16:56.789Z,6.93
2018-07-12T23:19:25.252Z,7.57
2018-07-12T23:21:53.684Z,7.33
2018-07-12T23:24:22.108Z,7.30
2018-07-12T23:26:50.537Z,6.77
2018-07-12T23:29:18.990Z,7.77
2018-07-12T23:31:47.423Z,7.40
2018-07-12T23:34:16.070Z,8.57
2018-07-12T23:36:44.620Z,8.23
2018-07-12T23:39:13.089Z,10.10
2018-07-12T23:41:41.514Z,10.07
2018-07-12T23:44:09.978Z,8.63
2018-07-12T23:46:38.606Z,9.30
2018-07-12T23:49:07.041Z,8.70
2018-07-12T23:51:35.530Z,10.10
2018-07-12T23:54:04.059Z,9.93
2018-07-12T23:56:33.634Z,10.10
2018-07-12T23:59:02.112Z,9.37
